• Join FlightAware (Why Join?)
  • Login
  • US Flag 
01:03PM EDT


 

Airport Tracker/Info


-or-


 

Live Flight TrackerFlight Track Log ✈ EJA877 ✈ 08-May-2013 ✈ KTEB - KAPF

Flight Track Log - Related Links

Times and Time Zones

All times are in EDT time to prevent confusion due to time zone crossing. See the EJA877 flight status page for this flight to view local times or setup timezone preferences in your user account.

Time Position Orientation Groundspeed Altitude Reporting Facility
EDT Latitude Longitude Course Direction KTS MPH feet Rate Location/Type
05:37PM 40.9167 -74.0500 252° West 222 255 2,200  Level New York TRACON
05:38PM 40.9000 -74.1167 252° West 224 258 5,100 1,920 Climbing New York TRACON
05:40PM 40.8883 -74.2872 265° West 271 312 7,800 2,100 Climbing New York Center
05:41PM 40.8786 -74.4047 264° West 291 335 11,000 2,460 Climbing New York Center
05:42PM 40.8189 -74.5139 234° Southwest 341 392 12,700 2,700 Climbing New York Center
05:43PM 40.7656 -74.6233 237° Southwest 354 407 16,500 2,820 Climbing New York Center
05:44PM 40.7142 -74.7272 237° Southwest 354 407 18,500 2,280 Climbing New York Center
05:45PM 40.6608 -74.8253 234° Southwest 343 395 21,200 2,400 Climbing New York Center
05:46PM 40.6092 -74.9317 237° Southwest 343 395 23,300 2,400 Climbing New York Center
05:47PM 40.5508 -75.0428 235° Southwest 354 407 26,000 2,820 Climbing New York Center
05:48PM 40.4892 -75.1400 230° Southwest 354 407 29,000 2,460 Climbing New York Center
05:49PM 40.4269 -75.2397 231° Southwest 354 407 31,000 1,800 Climbing New York Center
05:50PM 40.3647 -75.3417 231° Southwest 359 413 32,600 1,620 Climbing New York Center
05:51PM 40.3025 -75.4383 230° Southwest 359 413 34,300 1,500 Climbing New York Center
05:52PM 40.2381 -75.5403 230° Southwest 364 419 35,700 1,200 Climbing New York Center
05:53PM 40.1814 -75.6503 236° Southwest 364 419 36,800 960 Climbing New York Center
05:54PM 40.1269 -75.7578 237° Southwest 364 419 37,700 540 Climbing New York Center
05:55PM 40.0700 -75.8703 237° Southwest 370 426 38,000 120 Climbing New York Center
05:56PM 40.0111 -75.9800 235° Southwest 397 457 38,000  Level New York Center
05:57PM 39.9492 -76.1053 237° Southwest 409 471 38,000  Level New York Center
05:58PM 39.8706 -76.2264 230° Southwest 425 489 38,000  Level New York Center
05:59PM 39.7922 -76.3419 229° Southwest 432 497 38,000  Level New York Center
06:00PM 39.7067 -76.4728 230° Southwest 432 497 38,000  Level New York Center
06:01PM 39.6389 -76.5806 231° Southwest 437 503 38,000  Level New York Center
06:02PM 39.5600 -76.6981 229° Southwest 437 503 38,000  Level New York Center
06:02PM 39.5119 -76.7669 228° Southwest 433 498 38,000  Level Washington Center
06:03PM 39.4339 -76.8839 229° Southwest 433 498 38,000  Level Washington Center
06:04PM 39.3575 -77.0033 230° Southwest 428 493 38,000  Level Washington Center
06:05PM 39.2789 -77.1200 229° Southwest 428 493 38,000  Level Washington Center
06:06PM 39.2003 -77.2333 228° Southwest 428 493 38,000  Level Washington Center
06:07PM 39.1236 -77.3494 230° Southwest 428 493 38,000  Level Washington Center
06:08PM 39.0447 -77.4650 229° Southwest 428 493 38,000  Level Washington Center
06:09PM 38.9678 -77.5806 229° Southwest 428 493 38,000  Level Washington Center
06:10PM 38.8803 -77.7061 228° Southwest 428 493 38,000  Level Washington Center
06:11PM 38.8011 -77.8186 228° Southwest 428 493 38,000  Level Washington Center
06:12PM 38.7194 -77.9411 230° Southwest 440 506 38,000  Level Washington Center
06:13PM 38.6422 -78.0556 229° Southwest 440 506 38,000  Level Washington Center
06:14PM 38.5647 -78.1672 228° Southwest 434 499 38,000  Level Washington Center
06:15PM 38.4850 -78.2811 228° Southwest 428 493 38,000  Level Washington Center
06:16PM 38.4053 -78.3950 228° Southwest 428 493 38,000  Level Washington Center
06:17PM 38.3275 -78.5083 229° Southwest 428 493 38,000  Level Washington Center
06:18PM 38.2519 -78.6192 229° Southwest 423 487 38,000  Level Washington Center
06:19PM 38.1717 -78.7347 229° Southwest 430 495 38,000  Level Washington Center
06:20PM 38.0917 -78.8450 227° Southwest 430 495 38,000  Level Washington Center
06:21PM 38.0200 -78.9472 228° Southwest 430 495 38,000  Level Washington Center
06:22PM 37.9417 -79.0569 228° Southwest 430 495 38,000  Level Washington Center
06:23PM 37.8592 -79.1717 228° Southwest 430 495 38,000  Level Washington Center
06:24PM 37.7764 -79.2858 227° Southwest 430 495 38,000  Level Washington Center
06:25PM 37.6958 -79.3975 228° Southwest 430 495 38,000  Level Washington Center
06:26PM 37.6064 -79.5189 227° Southwest 435 501 38,000  Level Washington Center
06:27PM 37.5319 -79.6197 227° Southwest 435 501 38,000  Level Washington Center
06:28PM 37.4422 -79.7431 228° Southwest 435 501 38,000  Level Washington Center
06:30PM 37.2792 -79.9622 227° Southwest 439 505 38,000  Level Atlanta Center
06:31PM 37.1953 -80.0733 227° Southwest 432 497 38,000  Level Atlanta Center
06:32PM 37.1156 -80.1842 228° Southwest 432 497 38,000  Level Atlanta Center
06:33PM 37.0333 -80.2922 226° Southwest 432 497 38,000  Level Atlanta Center
06:34PM 36.9278 -80.3881 216° Southwest 437 503 38,000  Level Atlanta Center
06:35PM 36.8261 -80.4731 214° Southwest 437 503 38,000  Level Atlanta Center
06:36PM 36.7222 -80.5581 213° Southwest 442 509 38,000  Level Atlanta Center
06:37PM 36.6325 -80.6369 215° Southwest 441 507 38,000  Level Atlanta Center
06:38PM 36.5328 -80.7186 213° Southwest 441 507 38,000  Level Atlanta Center
06:39PM 36.4206 -80.8111 214° Southwest 441 507 38,000  Level Atlanta Center
06:40PM 36.3183 -80.8950 213° Southwest 441 507 38,000  Level Atlanta Center
06:41PM 36.2225 -80.9761 214° Southwest 436 502 38,000  Level Atlanta Center
06:42PM 36.1222 -81.0569 213° Southwest 436 502 38,000  Level Atlanta Center
06:43PM 36.0200 -81.1403 213° Southwest 436 502 38,000  Level Atlanta Center
06:44PM 35.9217 -81.2208 214° Southwest 436 502 38,000  Level Atlanta Center
06:45PM 35.8169 -81.3011 212° Southwest 441 507 38,000  Level Atlanta Center
06:46PM 35.7211 -81.3914 217° Southwest 434 499 38,000  Level Atlanta Center
06:47PM 35.6164 -81.4739 213° Southwest 445 512 38,000  Level Atlanta Center
06:48PM 35.5361 -81.5325 211° Southwest 445 512 38,000  Level Atlanta Center
06:49PM 35.4086 -81.6181 209° Southwest 445 512 38,000  Level Atlanta Center
06:50PM 35.2903 -81.6494 192° South 435 501 38,000  Level Atlanta Center
06:51PM 35.1678 -81.6758 190° South 445 512 38,000  Level Atlanta Center
06:52PM 35.0514 -81.7072 192° South 445 512 38,000  Level Atlanta Center
06:53PM 34.9308 -81.7308 189° South 445 512 38,000  Level Atlanta Center
06:54PM 34.8144 -81.7617 192° South 440 506 38,000  Level Atlanta Center
06:55PM 34.6919 -81.7931 192° South 440 506 38,000  Level Atlanta Center
06:56PM 34.5756 -81.8136 188° South 440 506 38,000  Level Atlanta Center
06:57PM 34.4569 -81.8419 191° South 440 506 38,000  Level Atlanta Center
06:58PM 34.3386 -81.8703 191° South 440 506 38,000  Level Atlanta Center
06:59PM 34.2200 -81.8958 190° South 440 506 38,000  Level Atlanta Center
07:00PM 34.1017 -81.9239 191° South 440 506 38,000  Level Atlanta Center
07:01PM 33.9789 -81.9519 191° South 440 506 38,000  Level Atlanta Center
07:02PM 33.8583 -81.9825 192° South 445 512 38,000  Level Atlanta Center
07:03PM 33.7378 -82.0103 191° South 445 512 38,000  Level Atlanta Center
07:04PM 33.6150 -82.0383 191° South 445 512 38,000  Level Atlanta Center
07:05PM 33.5175 -82.0606 191° South 445 512 38,000  Level Atlanta Center
07:06PM 33.3739 -82.0961 192° South 445 512 38,000  Level Atlanta Center
07:07PM 33.2553 -82.1211 190° South 445 512 38,000  Level Atlanta Center
07:08PM 33.1472 -82.1458 191° South 445 512 38,000  Level Atlanta Center
07:11PM 32.8642 -82.2125 191° South 458 527 38,000  Level Jacksonville Center
07:12PM 32.7453 -82.2356 189° South 446 513 38,000  Level Jacksonville Center
07:13PM 32.6264 -82.2636 191° South 441 507 38,000  Level Jacksonville Center
07:14PM 32.5200 -82.2864 190° South 441 507 38,000  Level Jacksonville Center
07:15PM 32.3908 -82.3169 191° South 447 514 38,000  Level Jacksonville Center
07:16PM 32.2633 -82.3053 176° South 447 514 38,000  Level Jacksonville Center
07:17PM 32.1400 -82.2964 177° South 442 509 38,000  Level Jacksonville Center
07:18PM 32.0272 -82.2847 175° South 447 514 38,000  Level Jacksonville Center
07:19PM 31.8914 -82.2736 176° South 446 513 38,000  Level Jacksonville Center
07:20PM 31.7661 -82.2622 176° South 446 513 38,000  Level Jacksonville Center
07:21PM 31.6431 -82.2531 176° South 446 513 38,000  Level Jacksonville Center
07:22PM 31.5178 -82.2467 178° South 446 513 38,000  Level Jacksonville Center
07:23PM 31.3922 -82.2331 175° South 446 513 38,000  Level Jacksonville Center
07:24PM 31.2669 -82.2267 178° South 451 519 38,000  Level Jacksonville Center
07:25PM 31.1439 -82.2178 176° South 451 519 38,000  Level Jacksonville Center
07:26PM 31.0183 -82.2042 175° South 451 519 38,000  Level Jacksonville Center
07:27PM 30.8953 -82.1928 175° South 451 519 38,000  Level Jacksonville Center
07:28PM 30.7739 -82.1842 177° South 446 513 38,000  Level Jacksonville Center
07:29PM 30.6528 -82.1731 175° South 441 507 38,000  Level Jacksonville Center
07:30PM 30.5419 -82.1569 173° South 446 513 38,000  Level Jacksonville Center
07:31PM 30.4189 -82.1483 177° South 446 513 38,000  Level Jacksonville Center
07:32PM 30.2956 -82.1397 177° South 446 513 38,000  Level Jacksonville Center
07:33PM 30.1725 -82.1286 176° South 446 513 38,000  Level Jacksonville Center
07:34PM 30.0511 -82.1031 170° South 441 507 38,000  Level Jacksonville Center
07:35PM 29.9258 -82.0825 172° South 448 516 38,000  Level Jacksonville Center
07:36PM 29.8003 -82.0572 170° South 448 516 38,000  Level Jacksonville Center
07:37PM 29.6622 -82.0297 170° South 454 522 38,000  Level Jacksonville Center
07:38PM 29.5517 -82.0092 171° South 454 522 38,000 -1,020 Level Jacksonville Center
07:39PM 29.4303 -81.9842 170° South 454 522 36,000 -1,500 Descending Jacksonville Center
07:40PM 29.3092 -81.9614 171° South 448 516 35,000 -540 Descending Jacksonville Center
07:41PM 29.1856 -81.9317 168° South 448 516 35,000 -660 Level Jacksonville Center
07:43PM 28.8889 -81.8744 170° South 461 531 32,900 -1,320 Descending Miami Center
07:44PM 28.7667 -81.8522 171° South 461 531 30,600 -2,340 Descending Miami Center
07:45PM 28.6425 -81.8256 169° South 461 531 28,300 -1,800 Descending Miami Center
07:46PM 28.5181 -81.7986 169° South 461 531 27,000 -1,500 Descending Miami Center
07:47PM 28.3942 -81.7625 166° South 461 531 25,400 -1,500 Descending Miami Center
07:48PM 28.2703 -81.7289 167° South 467 537 24,000 -780 Descending Miami Center
07:49PM 28.1544 -81.6956 166° South 456 525 23,900 -960 Descending Miami Center
07:50PM 28.0342 -81.6786 173° South 445 512 22,100 -1,920 Descending Miami Center
07:51PM 27.9269 -81.7022 191° South 413 475 20,100 -1,980 Descending Miami Center
07:52PM 27.8172 -81.7328 194° South 405 466 18,200 -1,500 Descending Miami Center
07:53PM 27.7142 -81.7611 194° South 393 452 17,100 -600 Descending Miami Center
07:54PM 27.5994 -81.7586 179° South 406 467 17,000 -60 Descending Miami Center
07:55PM 27.5006 -81.7217 162° South 411 473 17,000 -60 Level Miami Center
07:56PM 27.3978 -81.6706 156° South 406 467 16,900 -600 Descending Miami Center
07:57PM 27.2911 -81.6194 157° South 411 473 15,900 -1,620 Descending Miami Center
07:58PM 27.1861 -81.5683 157° South 411 473 13,700 -2,100 Descending Miami Center
07:59PM 27.0856 -81.5222 158° South 411 473 11,700 -1,800 Descending Miami Center
08:00PM 26.9908 -81.4742 156° South 384 442 10,100 -900 Descending Miami Center
08:01PM 26.8944 -81.4239 155° Southeast 379 436 10,000 -60 Descending Miami Center
08:02PM 26.7825 -81.3939 167° South 379 436 10,000  Level Miami Center
08:03PM 26.6781 -81.3969 181° South 379 436 10,000  Level Miami Center
08:04PM 26.5717 -81.3997 181° South 384 442 10,000  Level Miami Center
08:05PM 26.4769 -81.4192 190° South 384 442 10,000  Level Miami Center
08:06PM 26.3903 -81.4531 199° South 365 420 10,000  Level Miami Center
08:08PM 26.2523 -81.5620 241° Southwest  Level FlightAware Approximate
08:15PM 26.1500 -81.7667 246° West  Level FlightAware Approximate
08:16PM 26.1524 -81.7756 246° West  Level Estimated
08:17PM 26.1524 -81.7756 246° West  Level Estimated
08:18PM 26.1524 -81.7756 246° West  Level Estimated
08:19PM 26.1524 -81.7756 246° West  Level Estimated
08:20PM 26.1524 -81.7756 246° West  Level Estimated
08:21PM 26.1524 -81.7756 246° West  Level Estimated
08:22PM 26.1524 -81.7756 246° West  Level Estimated